createdAt,value
2018-08-31T00:02:13.563Z,16.40
2018-08-31T00:04:53.325Z,16.40
2018-08-31T00:07:34.060Z,16.40
2018-08-31T00:12:18.984Z,16.40
2018-08-31T00:14:47.351Z,16.40
2018-08-31T00:17:15.750Z,16.40
2018-08-31T00:19:44.131Z,16.40
2018-08-31T00:22:12.470Z,16.40
2018-08-31T00:25:53.734Z,16.40
2018-08-31T00:29:36.020Z,16.30
2018-08-31T00:34:19.019Z,16.30
2018-08-31T00:37:00.059Z,16.30
2018-08-31T00:39:40.323Z,16.30
2018-08-31T00:42:20.937Z,16.30
2018-08-31T00:45:01.200Z,16.30
2018-08-31T00:47:29.707Z,16.20
2018-08-31T00:49:58.133Z,16.10
2018-08-31T00:52:26.540Z,16.10
2018-08-31T00:54:54.880Z,16.00
2018-08-31T00:57:23.245Z,16.00
2018-08-31T00:59:51.585Z,16.10
2018-08-31T01:02:19.944Z,16.10
2018-08-31T01:04:48.296Z,16.10
2018-08-31T01:07:16.694Z,16.20
2018-08-31T01:09:45.154Z,16.10
2018-08-31T01:12:13.532Z,16.00
2018-08-31T01:14:41.866Z,16.00
2018-08-31T01:17:10.294Z,16.00
2018-08-31T01:19:38.650Z,16.00
2018-08-31T01:22:07.356Z,16.00
2018-08-31T01:24:35.787Z,16.00
2018-08-31T01:27:04.157Z,16.00
2018-08-31T01:29:32.525Z,16.00
2018-08-31T01:32:01.054Z,16.00
2018-08-31T01:34:29.490Z,16.10
2018-08-31T01:36:57.842Z,16.10
2018-08-31T01:39:26.240Z,16.10
2018-08-31T01:41:54.659Z,16.10
2018-08-31T01:44:23.001Z,16.10
2018-08-31T01:46:52.010Z,16.00
2018-08-31T01:49:20.435Z,16.10
2018-08-31T01:51:48.809Z,16.10
2018-08-31T01:54:17.174Z,16.10
2018-08-31T01:56:45.558Z,16.00
2018-08-31T01:59:13.897Z,16.00
2018-08-31T02:01:42.336Z,15.90
2018-08-31T02:04:10.806Z,15.90
2018-08-31T02:06:39.177Z,15.90
2018-08-31T02:09:12.966Z,15.90
2018-08-31T02:11:41.339Z,15.80
2018-08-31T02:14:09.721Z,15.70
2018-08-31T02:16:42.329Z,15.70
2018-08-31T02:19:10.822Z,15.80
2018-08-31T02:21:39.194Z,15.70
2018-08-31T02:24:07.929Z,15.70
2018-08-31T02:26:36.602Z,15.60
2018-08-31T02:29:04.969Z,15.60
2018-08-31T02:31:33.363Z,15.60
2018-08-31T02:34:01.760Z,15.50
2018-08-31T02:36:30.138Z,15.50
2018-08-31T02:38:58.475Z,15.50
2018-08-31T02:41:26.831Z,15.50
2018-08-31T02:43:55.239Z,15.60
2018-08-31T02:46:23.602Z,15.60
2018-08-31T02:48:52.799Z,15.50
2018-08-31T02:51:21.532Z,15.60
2018-08-31T02:53:49.897Z,15.60
2018-08-31T02:56:18.280Z,15.60
2018-08-31T02:58:46.685Z,15.60
2018-08-31T03:01:15.050Z,15.50
2018-08-31T03:03:43.393Z,15.60
2018-08-31T03:06:11.870Z,15.60
2018-08-31T03:08:40.381Z,15.60
2018-08-31T03:11:08.802Z,15.50
2018-08-31T03:13:37.135Z,15.50
2018-08-31T03:16:05.517Z,15.40
2018-08-31T03:18:34.323Z,15.40
2018-08-31T03:21:02.685Z,15.40
2018-08-31T03:23:31.059Z,15.40
2018-08-31T03:25:59.389Z,15.40
2018-08-31T03:28:27.743Z,15.40
2018-08-31T03:30:56.097Z,15.30
2018-08-31T03:33:24.458Z,15.40
2018-08-31T03:35:52.785Z,15.30
2018-08-31T03:38:21.152Z,15.30
2018-08-31T03:40:50.098Z,15.30
2018-08-31T03:43:18.565Z,15.20
2018-08-31T03:45:46.916Z,15.20
2018-08-31T03:48:15.257Z,15.20
2018-08-31T03:50:43.640Z,15.20
2018-08-31T03:53:12.006Z,15.20
2018-08-31T03:55:40.370Z,15.40
2018-08-31T03:58:08.714Z,15.20
2018-08-31T04:00:38.381Z,15.20
2018-08-31T04:03:06.767Z,15.20
2018-08-31T04:05:35.111Z,15.20
2018-08-31T04:08:03.494Z,15.20
2018-08-31T04:10:31.902Z,15.20
2018-08-31T04:13:00.238Z,15.10
2018-08-31T04:15:28.588Z,15.10
2018-08-31T04:17:56.994Z,15.10
2018-08-31T04:20:25.327Z,15.10
2018-08-31T04:22:53.684Z,15.10
2018-08-31T04:25:22.014Z,15.20
2018-08-31T04:27:50.373Z,15.10
2018-08-31T04:30:18.733Z,15.10
2018-08-31T04:32:47.080Z,15.10
2018-08-31T04:35:15.440Z,15.00
2018-08-31T04:37:43.760Z,15.00
2018-08-31T04:40:12.174Z,15.00
2018-08-31T04:42:40.547Z,15.00
2018-08-31T04:45:08.899Z,15.00
2018-08-31T04:47:37.277Z,15.00
2018-08-31T04:50:05.673Z,15.00
2018-08-31T04:52:34.024Z,15.00
2018-08-31T04:55:02.365Z,15.00
2018-08-31T04:57:30.782Z,15.00
2018-08-31T04:59:59.113Z,15.00
2018-08-31T05:02:27.451Z,15.00
2018-08-31T05:04:55.842Z,15.00
2018-08-31T05:07:24.259Z,15.00
2018-08-31T05:09:52.617Z,15.10
2018-08-31T05:12:21.126Z,15.00
2018-08-31T05:14:49.466Z,15.10
2018-08-31T05:17:17.837Z,15.20
2018-08-31T05:19:46.170Z,15.20
2018-08-31T05:22:14.578Z,15.20
2018-08-31T05:24:42.911Z,15.20
2018-08-31T05:27:11.421Z,15.30
2018-08-31T05:29:39.826Z,15.30
2018-08-31T05:32:08.171Z,15.30
2018-08-31T05:34:36.604Z,15.20
2018-08-31T05:37:04.934Z,15.20
2018-08-31T05:39:33.295Z,15.10
2018-08-31T05:42:01.630Z,15.20
2018-08-31T05:44:29.975Z,15.30
2018-08-31T05:46:58.338Z,15.30
2018-08-31T05:49:27.069Z,15.40
2018-08-31T05:51:55.438Z,15.40
2018-08-31T05:54:23.792Z,15.60
2018-08-31T05:56:52.119Z,15.50
2018-08-31T05:59:20.510Z,15.50
2018-08-31T06:01:48.854Z,15.70
2018-08-31T06:04:17.430Z,15.70
2018-08-31T06:06:45.851Z,15.80
2018-08-31T06:09:14.219Z,16.00
2018-08-31T06:11:42.621Z,16.10
2018-08-31T06:14:10.975Z,16.20
2018-08-31T06:16:39.368Z,16.20
2018-08-31T06:19:07.726Z,16.10
2018-08-31T06:21:36.225Z,16.00
2018-08-31T06:24:04.620Z,16.10
2018-08-31T06:26:32.982Z,16.10
2018-08-31T06:29:01.396Z,16.10
2018-08-31T06:31:29.754Z,16.10
2018-08-31T06:33:58.215Z,16.00
2018-08-31T06:36:26.665Z,16.00
2018-08-31T06:38:55.068Z,16.10
2018-08-31T06:41:23.465Z,16.20
2018-08-31T06:43:51.912Z,16.20
2018-08-31T06:46:20.298Z,16.20
2018-08-31T06:48:48.728Z,16.40
2018-08-31T06:51:17.132Z,16.40
2018-08-31T06:53:45.502Z,16.50
2018-08-31T06:56:14.422Z,16.50
2018-08-31T06:58:42.790Z,16.50
2018-08-31T07:01:11.262Z,16.50
2018-08-31T07:03:39.634Z,16.30
2018-08-31T07:06:08.083Z,16.40
2018-08-31T07:08:36.433Z,16.40
2018-08-31T07:11:04.798Z,16.40
2018-08-31T07:13:33.166Z,16.40
2018-08-31T07:16:01.519Z,16.30
2018-08-31T07:18:29.934Z,16.40
2018-08-31T07:20:58.330Z,16.50
2018-08-31T07:23:26.735Z,16.70
2018-08-31T07:25:55.086Z,16.60
2018-08-31T07:28:23.447Z,16.80
2018-08-31T07:30:51.900Z,16.80
2018-08-31T07:33:20.494Z,16.90
2018-08-31T07:35:49.057Z,16.90
2018-08-31T07:38:17.484Z,17.00
2018-08-31T07:40:45.854Z,17.20
2018-08-31T07:43:14.226Z,17.50
2018-08-31T07:45:43.216Z,17.60
2018-08-31T07:48:12.181Z,17.90
2018-08-31T07:50:40.578Z,18.10
2018-08-31T07:53:09.059Z,18.60
2018-08-31T07:55:37.871Z,19.50
2018-08-31T07:58:06.399Z,20.60
2018-08-31T08:00:34.739Z,21.10
2018-08-31T08:03:03.094Z,21.70
2018-08-31T08:05:31.501Z,21.90
2018-08-31T08:07:59.870Z,21.60
2018-08-31T08:10:28.279Z,21.40
2018-08-31T08:12:56.616Z,21.20
2018-08-31T08:15:25.057Z,20.90
2018-08-31T08:17:53.422Z,20.80
2018-08-31T08:20:22.025Z,20.70
2018-08-31T08:22:50.423Z,20.20
2018-08-31T08:25:18.823Z,19.80
2018-08-31T08:27:47.526Z,19.40
2018-08-31T08:30:16.128Z,19.20
2018-08-31T08:32:44.623Z,19.10
2018-08-31T08:35:13.169Z,18.90
2018-08-31T08:37:41.951Z,18.70
2018-08-31T08:40:10.392Z,18.60
2018-08-31T08:50:56.734Z,18.20
2018-08-31T08:53:26.021Z,18.20
2018-08-31T08:55:54.401Z,18.20
2018-08-31T08:58:22.855Z,18.40
2018-08-31T09:00:51.415Z,18.70
2018-08-31T09:03:20.251Z,19.20
2018-08-31T09:05:48.623Z,19.80
2018-08-31T09:08:17.005Z,20.00
2018-08-31T09:10:45.446Z,20.10
2018-08-31T09:13:13.873Z,20.20
2018-08-31T09:15:42.240Z,20.00
2018-08-31T09:18:11.466Z,19.60
2018-08-31T09:20:39.842Z,19.60
2018-08-31T09:23:08.279Z,19.60
2018-08-31T09:25:36.994Z,19.60
2018-08-31T09:28:05.600Z,19.90
2018-08-31T09:30:39.473Z,20.50
2018-08-31T09:33:07.935Z,21.00
2018-08-31T09:35:36.298Z,21.50
2018-08-31T09:38:04.866Z,21.50
2018-08-31T09:40:33.227Z,21.20
2018-08-31T09:43:01.632Z,21.70
2018-08-31T09:45:30.017Z,22.30
2018-08-31T09:47:58.404Z,22.80
2018-08-31T09:50:27.084Z,22.70
2018-08-31T09:52:55.458Z,22.80
2018-08-31T09:55:23.833Z,23.30
2018-08-31T09:57:52.231Z,24.20
2018-08-31T10:00:25.959Z,24.70
2018-08-31T10:02:59.714Z,24.90
2018-08-31T10:05:28.406Z,24.60
2018-08-31T10:07:56.807Z,24.60
2018-08-31T10:10:25.207Z,25.00
2018-08-31T10:12:53.559Z,24.90
2018-08-31T10:15:22.018Z,25.00
2018-08-31T10:17:50.694Z,24.70
2018-08-31T10:20:19.109Z,25.00
2018-08-31T10:22:47.460Z,24.70
2018-08-31T10:25:15.847Z,24.30
2018-08-31T10:27:44.213Z,24.00
2018-08-31T10:30:12.679Z,23.70
2018-08-31T10:32:41.154Z,24.10
2018-08-31T10:35:09.723Z,23.50
2018-08-31T10:37:38.102Z,22.90
2018-08-31T10:40:06.504Z,23.10
2018-08-31T10:42:35.502Z,23.30
2018-08-31T10:45:04.039Z,23.80
2018-08-31T10:47:32.394Z,24.40
2018-08-31T10:50:00.775Z,24.50
2018-08-31T10:52:29.150Z,24.20
2018-08-31T10:54:57.506Z,23.70
2018-08-31T10:57:25.885Z,23.20
2018-08-31T10:59:54.281Z,23.00
2018-08-31T11:02:22.717Z,23.70
2018-08-31T11:04:51.148Z,24.50
2018-08-31T11:07:19.579Z,24.70
2018-08-31T11:09:47.952Z,25.10
2018-08-31T11:12:16.354Z,25.20
2018-08-31T11:14:44.693Z,25.40
2018-08-31T11:17:13.095Z,26.00
2018-08-31T11:19:41.537Z,26.40
2018-08-31T11:22:09.907Z,25.40
2018-08-31T11:24:38.346Z,24.80
2018-08-31T11:27:06.804Z,25.00
2018-08-31T11:29:35.149Z,25.20
2018-08-31T11:32:04.012Z,25.30
2018-08-31T11:34:32.436Z,25.30
2018-08-31T11:37:00.821Z,26.00
2018-08-31T11:39:29.230Z,26.20
2018-08-31T11:41:57.566Z,25.50
2018-08-31T11:44:25.924Z,25.20
2018-08-31T11:46:54.377Z,24.50
2018-08-31T11:49:22.798Z,24.60
2018-08-31T11:51:51.208Z,24.70
2018-08-31T11:54:19.590Z,25.00
2018-08-31T11:56:47.987Z,25.00
2018-08-31T11:59:16.412Z,24.70
2018-08-31T12:01:44.889Z,24.30
2018-08-31T12:04:13.293Z,23.80
2018-08-31T12:06:41.650Z,23.10
2018-08-31T12:09:10.490Z,22.60
2018-08-31T12:11:38.898Z,22.50
2018-08-31T12:14:07.306Z,22.80
2018-08-31T12:16:36.271Z,23.30
2018-08-31T12:19:04.715Z,23.90
2018-08-31T12:21:33.157Z,24.60
2018-08-31T12:24:01.510Z,25.20
2018-08-31T12:26:29.859Z,25.20
2018-08-31T12:28:58.260Z,24.30
2018-08-31T12:31:27.473Z,23.90
2018-08-31T12:33:55.956Z,23.60
2018-08-31T12:36:24.417Z,23.60
2018-08-31T12:38:52.794Z,23.80
2018-08-31T12:41:21.189Z,24.40
2018-08-31T12:43:49.658Z,24.40
2018-08-31T12:46:18.099Z,25.00
2018-08-31T12:48:46.498Z,25.30
2018-08-31T12:51:14.904Z,25.40
2018-08-31T12:53:43.287Z,25.70
2018-08-31T12:56:11.737Z,26.20
2018-08-31T12:58:40.119Z,26.10
2018-08-31T13:01:08.864Z,26.20
2018-08-31T13:03:37.252Z,26.30
2018-08-31T13:06:05.726Z,26.30
2018-08-31T13:08:34.150Z,26.60
2018-08-31T13:11:02.627Z,26.90
2018-08-31T13:13:30.984Z,26.10
2018-08-31T13:15:59.362Z,25.00
2018-08-31T13:18:27.740Z,24.70
2018-08-31T13:20:56.314Z,24.30
2018-08-31T13:23:24.913Z,23.80
2018-08-31T13:25:53.390Z,23.60
2018-08-31T13:28:21.819Z,23.20
2018-08-31T13:30:50.247Z,23.10
2018-08-31T13:33:18.731Z,23.40
2018-08-31T13:35:47.118Z,24.30
2018-08-31T13:38:15.574Z,24.90
2018-08-31T13:40:43.949Z,25.40
2018-08-31T13:43:12.363Z,25.00
2018-08-31T13:45:41.174Z,25.30
2018-08-31T13:48:09.569Z,25.30
2018-08-31T13:50:38.029Z,25.50
2018-08-31T13:53:06.455Z,26.00
2018-08-31T13:55:34.798Z,26.50
2018-08-31T13:58:03.318Z,26.80
2018-08-31T14:00:31.690Z,26.80
2018-08-31T14:03:00.116Z,26.40
2018-08-31T14:05:28.481Z,26.00
2018-08-31T14:07:56.852Z,25.90
2018-08-31T14:10:25.318Z,25.80
2018-08-31T14:12:53.800Z,25.80
2018-08-31T14:15:22.128Z,25.90
2018-08-31T14:17:50.511Z,26.00
2018-08-31T14:20:18.921Z,26.10
2018-08-31T14:22:47.903Z,25.90
2018-08-31T14:25:16.298Z,25.50
2018-08-31T14:27:44.674Z,25.20
2018-08-31T14:30:13.491Z,24.80
2018-08-31T14:32:41.889Z,24.90
2018-08-31T14:35:10.310Z,25.40
2018-08-31T14:37:38.691Z,25.50
2018-08-31T14:40:07.864Z,26.00
2018-08-31T14:42:36.308Z,26.20
2018-08-31T14:45:05.123Z,25.50
2018-08-31T14:47:33.537Z,25.40
2018-08-31T14:50:02.137Z,25.90
2018-08-31T14:52:30.364Z,26.40
2018-08-31T14:54:58.738Z,26.20
2018-08-31T14:57:27.306Z,26.30
2018-08-31T14:59:55.682Z,26.20
2018-08-31T15:02:24.128Z,26.30
2018-08-31T15:04:52.491Z,26.50
2018-08-31T15:07:20.869Z,26.40
2018-08-31T15:09:49.222Z,26.20
2018-08-31T15:12:17.646Z,26.20
2018-08-31T15:14:45.991Z,26.30
2018-08-31T15:17:14.401Z,25.90
2018-08-31T15:19:42.744Z,25.80
2018-08-31T15:22:11.109Z,25.40
2018-08-31T15:24:39.462Z,24.90
2018-08-31T15:27:07.962Z,24.60
2018-08-31T15:29:36.342Z,24.40
2018-08-31T15:32:04.912Z,24.70
2018-08-31T15:34:33.296Z,24.40
2018-08-31T15:37:01.676Z,24.10
2018-08-31T15:39:30.062Z,24.00
2018-08-31T15:41:58.436Z,24.00
2018-08-31T15:44:26.899Z,23.80
2018-08-31T15:46:55.282Z,23.70
2018-08-31T15:49:23.967Z,23.60
2018-08-31T15:51:52.307Z,23.60
2018-08-31T15:54:20.670Z,23.40
2018-08-31T15:56:49.026Z,23.30
2018-08-31T15:59:17.409Z,23.20
2018-08-31T16:01:45.763Z,22.90
2018-08-31T16:04:14.137Z,22.80
2018-08-31T16:06:42.515Z,22.90
2018-08-31T16:09:11.171Z,22.90
2018-08-31T16:11:39.477Z,22.80
2018-08-31T16:14:07.966Z,22.60
2018-08-31T16:16:36.428Z,22.60
2018-08-31T16:19:04.946Z,22.60
2018-08-31T16:21:33.234Z,22.50
2018-08-31T16:24:01.625Z,22.20
2018-08-31T16:26:30.104Z,22.30
2018-08-31T16:28:58.640Z,22.30
2018-08-31T16:31:27.212Z,22.30
2018-08-31T16:33:55.534Z,22.20
2018-08-31T16:36:23.986Z,22.00
2018-08-31T16:38:52.464Z,22.10
2018-08-31T16:41:20.837Z,22.10
2018-08-31T16:43:49.947Z,22.00
2018-08-31T16:46:19.118Z,21.90
2018-08-31T16:48:47.445Z,21.90
2018-08-31T16:51:15.809Z,21.90
2018-08-31T16:53:44.206Z,21.90
2018-08-31T16:56:12.615Z,21.80
2018-08-31T16:58:40.978Z,21.80
2018-08-31T17:01:09.358Z,21.80
2018-08-31T17:03:37.715Z,21.70
2018-08-31T17:06:06.356Z,21.60
2018-08-31T17:08:34.762Z,21.50
2018-08-31T17:11:03.177Z,21.40
2018-08-31T17:13:31.539Z,21.30
2018-08-31T17:15:59.911Z,21.20
2018-08-31T17:18:28.304Z,21.20
2018-08-31T17:20:56.671Z,21.10
2018-08-31T17:23:25.342Z,21.00
2018-08-31T17:25:53.755Z,21.00
2018-08-31T17:28:27.471Z,20.90
2018-08-31T17:31:01.167Z,20.80
2018-08-31T17:33:34.874Z,20.70
2018-08-31T17:36:08.573Z,20.70
2018-08-31T17:38:37.000Z,20.60
2018-08-31T17:41:05.499Z,20.60
2018-08-31T17:43:34.117Z,20.60
2018-08-31T17:46:02.813Z,20.40
2018-08-31T17:48:31.245Z,20.50
2018-08-31T17:50:59.597Z,20.50
2018-08-31T17:53:28.029Z,20.40
2018-08-31T17:55:56.915Z,20.40
2018-08-31T17:58:25.364Z,20.30
2018-08-31T18:00:53.715Z,20.20
2018-08-31T18:03:22.143Z,20.20
2018-08-31T18:05:50.560Z,20.20
2018-08-31T18:08:19.120Z,20.20
2018-08-31T18:10:47.608Z,20.10
2018-08-31T18:13:16.184Z,20.10
2018-08-31T18:15:44.617Z,20.10
2018-08-31T18:18:12.980Z,20.00
2018-08-31T18:20:41.357Z,20.00
2018-08-31T18:23:09.707Z,19.90
2018-08-31T18:25:38.158Z,19.90
2018-08-31T18:28:06.565Z,19.90
2018-08-31T18:30:34.967Z,19.90
2018-08-31T18:33:03.591Z,19.90
2018-08-31T18:35:32.322Z,19.80
2018-08-31T18:38:00.688Z,19.80
2018-08-31T18:40:29.247Z,19.70
2018-08-31T18:42:57.960Z,19.70
2018-08-31T18:45:26.448Z,19.60
2018-08-31T18:47:54.963Z,19.60
2018-08-31T18:50:23.393Z,19.60
2018-08-31T18:52:51.788Z,19.60
2018-08-31T18:55:20.225Z,19.50
2018-08-31T18:57:48.611Z,19.40
2018-08-31T19:00:17.150Z,19.40
2018-08-31T19:02:45.648Z,19.30
2018-08-31T19:05:14.616Z,19.30
2018-08-31T19:07:43.105Z,19.10
2018-08-31T19:10:11.480Z,19.10
2018-08-31T19:12:39.986Z,19.00
2018-08-31T19:15:08.446Z,19.00
2018-08-31T19:17:36.845Z,19.00
2018-08-31T19:20:05.330Z,19.00
2018-08-31T19:22:33.732Z,18.90
2018-08-31T19:25:02.186Z,18.90
2018-08-31T19:27:30.535Z,18.80
2018-08-31T19:29:59.045Z,18.80
2018-08-31T19:32:28.192Z,18.80
2018-08-31T19:34:56.575Z,18.80
2018-08-31T19:37:24.999Z,18.70
2018-08-31T19:39:53.417Z,18.60
2018-08-31T19:42:21.889Z,18.60
2018-08-31T19:44:50.275Z,18.50
2018-08-31T19:47:18.744Z,18.50
2018-08-31T19:49:47.130Z,18.40
2018-08-31T19:52:15.539Z,18.40
2018-08-31T19:54:43.907Z,18.40
2018-08-31T19:57:12.299Z,18.40
2018-08-31T19:59:41.014Z,18.40
2018-08-31T20:02:09.399Z,18.40
2018-08-31T20:04:37.752Z,18.40
2018-08-31T20:07:06.182Z,18.40
2018-08-31T20:09:34.615Z,18.20
2018-08-31T20:12:03.016Z,18.20
2018-08-31T20:14:31.448Z,18.20
2018-08-31T20:16:59.884Z,18.20
2018-08-31T20:19:28.320Z,18.00
2018-08-31T20:21:56.746Z,18.10
2018-08-31T20:24:25.376Z,18.00
2018-08-31T20:26:53.766Z,18.00
2018-08-31T20:29:22.223Z,18.00
2018-08-31T20:31:50.625Z,18.00
2018-08-31T20:34:19.022Z,18.00
2018-08-31T20:36:47.449Z,17.90
2018-08-31T20:39:15.836Z,17.90
2018-08-31T20:41:44.302Z,17.80
2018-08-31T20:44:12.805Z,17.80
2018-08-31T20:46:41.200Z,17.80
2018-08-31T20:49:09.583Z,17.90
2018-08-31T20:51:38.005Z,17.80
2018-08-31T20:54:06.409Z,17.70
2018-08-31T20:56:34.879Z,17.80
2018-08-31T20:59:03.297Z,17.80
2018-08-31T21:01:31.702Z,17.70
2018-08-31T21:04:00.209Z,17.80
2018-08-31T21:06:28.693Z,17.80
2018-08-31T21:08:57.100Z,17.70
2018-08-31T21:11:25.552Z,17.70
2018-08-31T21:13:53.907Z,17.60
2018-08-31T21:16:22.388Z,17.60
2018-08-31T21:18:50.817Z,17.60
2018-08-31T21:21:19.243Z,17.60
2018-08-31T21:23:47.669Z,17.60
2018-08-31T21:26:16.052Z,17.60
2018-08-31T21:28:44.539Z,17.60
2018-08-31T21:31:12.936Z,17.60
2018-08-31T21:33:41.464Z,17.50
2018-08-31T21:36:10.196Z,17.50
2018-08-31T21:38:38.637Z,17.40
2018-08-31T21:41:07.156Z,17.50
2018-08-31T21:43:35.500Z,17.50
2018-08-31T21:46:04.421Z,17.40
2018-08-31T21:48:32.781Z,17.40
2018-08-31T21:51:01.328Z,17.30
2018-08-31T21:53:29.752Z,17.30
2018-08-31T21:55:58.092Z,17.30
2018-08-31T21:58:26.499Z,17.20
2018-08-31T22:01:00.275Z,17.20
2018-08-31T22:03:28.632Z,17.20
2018-08-31T22:06:04.187Z,17.10
2018-08-31T22:08:32.617Z,17.00
2018-08-31T22:11:01.072Z,17.00
2018-08-31T22:13:29.514Z,17.10
2018-08-31T22:15:57.955Z,17.10
2018-08-31T22:18:26.354Z,17.00
2018-08-31T22:20:54.814Z,17.00
2018-08-31T22:23:23.194Z,16.90
2018-08-31T22:25:51.633Z,16.90
2018-08-31T22:28:20.738Z,16.80
2018-08-31T22:30:49.502Z,16.90
2018-08-31T22:33:17.863Z,16.80
2018-08-31T22:35:46.252Z,16.80
2018-08-31T22:38:14.984Z,16.70
2018-08-31T22:40:43.406Z,16.70
2018-08-31T22:43:12.310Z,16.70
2018-08-31T22:45:40.755Z,16.70
2018-08-31T22:48:09.151Z,16.60
2018-08-31T22:50:37.547Z,16.60
2018-08-31T22:53:05.914Z,16.50
2018-08-31T22:55:34.281Z,16.50
2018-08-31T22:58:02.676Z,16.50
2018-08-31T23:00:31.066Z,16.50
2018-08-31T23:02:59.682Z,16.50
2018-08-31T23:05:28.017Z,16.40
2018-08-31T23:08:02.934Z,16.40
2018-08-31T23:10:32.044Z,16.40
2018-08-31T23:13:00.542Z,16.40
2018-08-31T23:15:28.974Z,16.30
2018-08-31T23:17:57.389Z,16.30
2018-08-31T23:20:25.810Z,16.30
2018-08-31T23:23:58.012Z,16.30
2018-08-31T23:26:26.405Z,16.20
2018-08-31T23:28:55.048Z,16.20
2018-08-31T23:31:23.429Z,16.20
2018-08-31T23:33:51.770Z,16.20
2018-08-31T23:36:20.155Z,16.10
2018-08-31T23:38:48.573Z,16.10
2018-08-31T23:41:18.072Z,16.00
2018-08-31T23:43:46.437Z,16.00
2018-08-31T23:46:14.780Z,16.00
2018-08-31T23:48:43.172Z,16.00
2018-08-31T23:51:11.474Z,15.90
2018-08-31T23:53:39.836Z,16.00
2018-08-31T23:56:08.215Z,15.90
2018-08-31T23:58:36.559Z,15.90
